Meteo Giornale » Osservazioni meteo Stati Uniti (USA) » Fitchburg

ore: 22:52 - Osservazioni Meteo Fitchburg
Lat. 42° 33' N Lon. 71° 45' W Alt. 106 metri s.l.m.

coperto America/New_York

22 °C

Coperto

Temp. 24 Ore

20 °C

26 °C

Sud-Est

13 Km/h

Dew point 20 °C

Umidità 88 %

Visibilità  10 Km

Il sole sorge alle ore 06:34

Il sole tramonta alle ore 18:43

Data e Ora Cielo e Fenomeni T °C DP °C Um. % Pres. hPa Vis. km Vento km/h
Oggi h: 22:52 coperto Coperto 22 20 88 1018 10 SE 13
Oggi h: 22:20 coperto Coperto 22 20 88 1018 10 SE 13
Oggi h: 21:52 coperto Coperto 22 19 83 1018 10 SE 14.8
Oggi h: 20:52 coperto Coperto 22 20 88 1018 10 E/SE 13
Oggi h: 19:52 coperto Coperto 23 19 78 1018 10 SE 16.7
Oggi h: 19:08 molto_nuvoloso Molto Nuvoloso 23 19 78 1018 10 SE 9.3
Oggi h: 18:52 molto_nuvoloso Molto Nuvoloso 23 18 73 1018 10 S/SE 14.8
Oggi h: 17:52 sereno Sereno 24 18 69 1017 10 S/SE 14.8
Oggi h: 15:52 molto_nuvoloso Molto Nuvoloso 26 18 61 1017 10 S/SE 22.2
Oggi h: 14:52 sereno Sereno 25 20 73 1017 10 S/SE 14.8
Oggi h: 13:58 coperto_pioggia Pioggia Debole 23 20 83 1018 5 SE 16.7
Oggi h: 13:52 coperto_pioggia Pioggia Foschia 22 20 88 1018 2 S/SE 22.2
Oggi h: 13:49 coperto_pioggia Pioggia Debole 23 20 83 1018 5 S 24
Oggi h: 12:52 nuvoloso Nuvoloso 26 18 61 1018 10 S/SE 20.3
Oggi h: 12:02 molto_nuvoloso Molto Nuvoloso 26 19 65 1018 10 S/SE 22.2
Oggi h: 11:52 coperto Coperto 25 19 69 1018 10 SE 18.5
Oggi h: 10:52 coperto Coperto 24 19 73 1019 10 S/SE 13
Oggi h: 10:07 coperto Coperto 22 19 83 1018 10 SE 14.8
Oggi h: 09:52 coperto Coperto 22 19 83 1018 10 S/SE 18.5
Oggi h: 09:25 coperto Coperto 22 19 83 1018 10 S/SE 13
Oggi h: 09:18 coperto Coperto 22 19 83 1018 10 S/SE 13
Oggi h: 08:52 coperto Coperto 21 19 88 1018 10 SE 14.8
Oggi h: 07:52 coperto Coperto 21 19 88 1018 10 S/SE 9.3
Oggi h: 06:52 coperto_pioggia Pioggia Debole 20 19 93 1018 10 SE 7.4
Oggi h: 06:47 coperto_pioggia Pioggia Debole 20 19 93 1018 14 SE 7.4
Oggi h: 06:15 coperto Coperto 20 19 93 1018 10 N 5.5
Oggi h: 05:52 coperto Coperto 20 19 93 1019 10 N 5.5
Oggi h: 05:08 coperto Coperto 20 18 88 1018 10 S/SE 7.4
Oggi h: 04:52 coperto Coperto 20 18 88 1018 10 S/SE 9.3
Oggi h: 03:52 coperto Coperto 20 19 93 1018 10 SE 9.3
Oggi h: 02:52 coperto Coperto 21 19 88 1019 10 S/SE 9.3
Oggi h: 01:52 coperto Coperto 21 19 88 1019 10 SE 11.1
Oggi h: 01:49 coperto Coperto 21 19 88 1019 10 SE 11.1
Oggi h: 00:52 coperto Coperto 21 19 88 1019 10 SE 9.3
Oggi h: 00:38 coperto Coperto 21 19 88 1019 10 N 5.5
Ieri h: 23:52 coperto Coperto 21 19 88 1019 10 SE 9.3
Ieri h: 23:32 coperto Coperto 21 19 88 1019 10 SE 9.3